Time;durP1;ratioP1;P1;durP2;ratioP2;P2;SDS_P1;SDS_P2;PMS_P1;PMS_P2;Temp;Humidity;BMP_temperature;BMP_pressure;BME280_temperature;BME280_humidity;BME280_pressure;Samples;Min_cycle;Max_cycle;Signal;HPM_P1;HPM_P2
2023/04/17 00:04:51;;;;;;;12.77;7.77;;;;;;;8.40;100.00;101254.44;5183029;55;1141078;-78
2023/04/17 00:09:56;;;;;;;11.83;7.40;;;;;;;8.34;100.00;101236.83;5183467;55;1140977;-77
2023/04/17 00:15:02;;;;;;;17.23;8.57;;;;;;;8.43;100.00;101254.74;5203523;55;1140831;-77
2023/04/17 00:20:09;;;;;;;22.20;9.40;;;;;;;8.33;100.00;101244.35;5182984;55;1140856;-78
2023/04/17 00:25:15;;;;;;;12.97;8.30;;;;;;;8.25;100.00;101246.55;5168100;55;1140803;-78
2023/04/17 00:30:20;;;;;;;14.07;8.77;;;;;;;8.23;100.00;101249.73;5116411;56;1140907;-78
2023/04/17 00:35:26;;;;;;;12.20;7.37;;;;;;;8.19;100.00;101253.47;5070754;56;1141007;-76
2023/04/17 00:40:32;;;;;;;14.17;7.73;;;;;;;8.20;100.00;101252.08;5066633;56;1140909;-77
2023/04/17 00:45:37;;;;;;;12.50;7.40;;;;;;;8.23;100.00;101253.69;5042028;56;1141024;-78
2023/04/17 00:50:44;;;;;;;12.93;8.07;;;;;;;8.25;100.00;101257.91;4964949;56;1141070;-76
2023/04/17 00:55:52;;;;;;;13.83;7.83;;;;;;;8.21;100.00;101252.92;4984035;57;1141062;-77
2023/04/17 01:00:59;;;;;;;13.00;7.50;;;;;;;8.20;100.00;101259.98;4983796;56;1144340;-76
2023/04/17 01:06:06;;;;;;;14.13;8.07;;;;;;;8.15;100.00;101255.89;5075728;56;1141084;-77
2023/04/17 01:11:12;;;;;;;18.10;8.70;;;;;;;8.09;100.00;101259.73;5066790;56;1141089;-79
2023/04/17 01:16:20;;;;;;;15.87;7.73;;;;;;;8.09;100.00;101266.32;5066908;56;1140951;-79
2023/04/17 01:21:26;;;;;;;12.47;6.97;;;;;;;8.10;100.00;101264.89;5086816;56;1140998;-77
2023/04/17 01:26:32;;;;;;;11.70;8.00;;;;;;;8.12;100.00;101266.97;5066568;56;1141006;-77
2023/04/17 01:31:38;;;;;;;16.47;7.67;;;;;;;8.09;100.00;101270.27;5066718;56;1140863;-77
2023/04/17 01:36:44;;;;;;;9.57;7.00;;;;;;;8.01;100.00;101270.67;5087412;55;1141059;-76
2023/04/17 01:41:50;;;;;;;12.50;6.65;;;;;;;8.02;100.00;101270.21;5097431;55;1139063;-79
2023/04/17 01:46:55;;;;;;;11.27;7.87;;;;;;;7.98;100.00;101269.52;5096520;56;1141003;-76
2023/04/17 01:52:01;;;;;;;11.97;7.10;;;;;;;7.93;100.00;101268.09;5146373;55;1141009;-80
2023/04/17 01:57:07;;;;;;;12.00;7.07;;;;;;;7.90;100.00;101273.05;5172204;55;1140853;-77
2023/04/17 02:02:12;;;;;;;13.37;8.37;;;;;;;7.92;100.00;101272.98;5148442;55;1140822;-80
2023/04/17 02:07:18;;;;;;;9.63;7.73;;;;;;;7.81;100.00;101270.91;5183058;55;1140970;-80
2023/04/17 02:12:24;;;;;;;13.70;8.43;;;;;;;7.81;100.00;101270.91;5201821;55;1139043;-75
2023/04/17 02:17:29;;;;;;;11.37;8.10;;;;;;;7.75;100.00;101271.25;5127703;55;1140930;-77
2023/04/17 02:22:35;;;;;;;16.47;11.23;;;;;;;7.75;100.00;101276.52;5097506;55;1141075;-78
2023/04/17 02:27:41;;;;;;;12.03;9.10;;;;;;;7.69;100.00;101275.52;5174843;55;1143077;-75
2023/04/17 02:32:46;;;;;;;13.63;10.00;;;;;;;7.68;100.00;101273.35;5138818;55;1141080;-76
2023/04/17 02:37:52;;;;;;;19.52;10.13;;;;;;;7.72;100.00;101273.58;5096049;56;1142927;-79
2023/04/17 02:42:59;;;;;;;16.10;11.26;;;;;;;7.72;100.00;101287.20;5146224;55;1143531;-78
2023/04/17 02:48:06;;;;;;;16.70;10.83;;;;;;;7.66;100.00;101283.58;5193664;55;1143607;-79
2023/04/17 02:53:12;;;;;;;15.60;10.37;;;;;;;7.66;100.00;101274.36;5101314;55;1143247;-77
2023/04/17 02:58:18;;;;;;;17.23;11.97;;;;;;;7.68;100.00;101270.72;5108304;55;1143202;-78
2023/04/17 03:03:26;;;;;;;13.13;9.10;;;;;;;7.57;100.00;101273.55;5162121;55;1143313;-76
2023/04/17 03:08:34;;;;;;;19.30;11.17;;;;;;;7.57;100.00;101286.70;5105663;55;1140939;-78
2023/04/17 03:13:39;;;;;;;14.83;10.57;;;;;;;7.51;100.00;101285.70;5096839;55;1143005;-77
2023/04/17 03:18:45;;;;;;;14.33;11.10;;;;;;;7.49;100.00;101287.56;5120116;55;1143206;-79
2023/04/17 03:23:50;;;;;;;14.15;11.45;;;;;;;7.47;100.00;101287.67;5096359;55;1143144;-78
2023/04/17 03:28:57;;;;;;;25.07;15.83;;;;;;;7.43;100.00;101291.38;5099307;55;1143161;-79
2023/04/17 03:34:03;;;;;;;21.40;14.93;;;;;;;7.39;100.00;101285.42;5095732;56;1143212;-76
2023/04/17 03:39:09;;;;;;;14.03;10.33;;;;;;;7.38;100.00;101295.56;5115522;56;1142983;-74
2023/04/17 03:44:16;;;;;;;23.53;13.20;;;;;;;7.33;100.00;101303.33;5118170;55;1142948;-79
2023/04/17 03:49:22;;;;;;;14.60;10.47;;;;;;;7.32;100.00;101306.89;5150358;55;1143093;-74
2023/04/17 03:54:28;;;;;;;13.67;10.33;;;;;;;7.36;100.00;101311.89;5182140;55;1143167;-79
2023/04/17 03:59:36;;;;;;;16.93;11.40;;;;;;;7.34;100.00;101316.38;5116072;55;1143262;-77
2023/04/17 04:04:49;;;;;;;13.57;10.40;;;;;;;7.35;100.00;101319.86;4979702;57;1143337;-79
2023/04/17 04:09:55;;;;;;;14.08;11.08;;;;;;;7.41;100.00;101328.77;4965271;58;1143235;-77
2023/04/17 04:15:01;;;;;;;23.35;10.85;;;;;;;7.36;100.00;101325.52;4980943;57;1143097;-78
2023/04/17 04:20:08;;;;;;;17.67;10.27;;;;;;;7.29;100.00;101330.25;4990452;57;1143278;-76
2023/04/17 04:25:14;;;;;;;10.97;8.60;;;;;;;7.23;100.00;101339.77;5027564;56;1143106;-76
2023/04/17 04:30:37;;;;;;;9.87;8.40;;;;;;;7.22;100.00;101345.09;5134180;56;1140976;-79
2023/04/17 04:35:40;;;;;;;15.67;10.97;;;;;;;7.25;100.00;101355.47;5115960;56;1138941;-78
2023/04/17 04:40:52;;;;;;;16.27;10.25;;;;;;;7.20;100.00;101360.11;5087591;56;1143255;-79
2023/04/17 04:45:54;;;;;;;12.00;9.17;;;;;;;7.16;100.00;101363.38;5032835;56;1142967;-74
2023/04/17 04:51:01;;;;;;;16.57;11.12;;;;;;;7.16;100.00;101363.38;4989956;57;1140838;-81
2023/04/17 04:56:07;;;;;;;16.60;11.20;;;;;;;7.21;100.00;101361.81;4961784;57;1143177;-81
2023/04/17 05:01:13;;;;;;;11.63;9.08;;;;;;;7.24;100.00;101361.20;4924096;57;1143094;-80
2023/04/17 05:06:20;;;;;;;13.80;10.50;;;;;;;7.24;100.00;101369.09;4973109;57;1141127;-78
2023/04/17 05:11:28;;;;;;;21.67;13.53;;;;;;;7.23;100.00;101383.17;5000013;56;1143049;-77
2023/04/17 05:16:34;;;;;;;17.10;10.37;;;;;;;7.24;100.00;101382.71;4918755;57;1142921;-78
2023/04/17 05:21:40;;;;;;;12.70;10.27;;;;;;;7.23;100.00;101377.91;4899095;58;1142914;-77
2023/04/17 05:26:47;;;;;;;13.83;10.48;;;;;;;7.19;100.00;101387.34;4955047;58;1143322;-77
2023/04/17 05:31:53;;;;;;;14.33;10.50;;;;;;;7.18;100.00;101388.30;4998178;57;1143001;-79
2023/04/17 05:37:16;;;;;;;18.13;9.57;;;;;;;7.19;100.00;101388.66;4891465;57;1143039;-76
2023/04/17 05:42:22;;;;;;;14.30;10.17;;;;;;;7.27;100.00;101390.45;5062116;56;1140960;-79
2023/04/17 05:47:28;;;;;;;16.93;11.53;;;;;;;7.32;100.00;101395.89;4995533;57;1143205;-79
2023/04/17 05:52:35;;;;;;;19.60;11.30;;;;;;;7.24;100.00;101399.81;4978491;58;1142941;-80
2023/04/17 05:57:41;;;;;;;12.07;9.37;;;;;;;7.26;100.00;101398.81;4957720;56;1143044;-79
2023/04/17 06:02:46;;;;;;;12.63;7.97;;;;;;;7.32;100.00;101404.25;4998976;57;1141087;-79
2023/04/17 06:07:54;;;;;;;14.58;10.58;;;;;;;7.34;100.00;101407.16;5062041;56;1141240;-78
2023/04/17 06:13:00;;;;;;;13.43;10.67;;;;;;;7.34;100.00;101409.80;4978904;57;1142988;-80
2023/04/17 06:18:06;;;;;;;18.90;10.87;;;;;;;7.39;100.00;101405.16;5062073;56;1143343;-74
2023/04/17 06:23:12;;;;;;;11.40;8.13;;;;;;;7.47;100.00;101399.53;4998211;57;1142910;-79
2023/04/17 06:28:17;;;;;;;10.97;8.13;;;;;;;7.52;100.00;101400.59;5061987;56;1140969;-79
2023/04/17 06:33:25;;;;;;;16.73;10.97;;;;;;;7.49;100.00;101399.42;5062157;56;1140867;-74
2023/04/17 06:38:31;;;;;;;17.97;9.63;;;;;;;7.48;100.00;101399.91;5081828;56;1143198;-83
2023/04/17 06:43:37;;;;;;;10.77;8.40;;;;;;;7.49;100.00;101418.70;5050622;56;1141044;-79
2023/04/17 06:48:44;;;;;;;10.33;8.27;;;;;;;7.45;100.00;101417.64;4897378;58;1141167;-77
2023/04/17 06:53:49;;;;;;;13.33;9.37;;;;;;;7.47;100.00;101419.73;4914576;58;1140927;-80
2023/04/17 06:58:56;;;;;;;14.60;9.25;;;;;;;7.50;100.00;101418.23;4979144;57;1141009;-80
2023/04/17 07:04:02;;;;;;;11.08;9.35;;;;;;;7.58;100.00;101426.61;5017254;56;1140838;-78
2023/04/17 07:09:08;;;;;;;13.80;9.77;;;;;;;7.67;100.00;101431.40;4980204;56;1141216;-81
2023/04/17 07:14:13;;;;;;;14.80;11.37;;;;;;;7.69;100.00;101430.86;4998705;57;1141013;-79
2023/04/17 07:19:19;;;;;;;12.63;10.30;;;;;;;7.74;100.00;101431.02;5061498;56;1143040;-82
2023/04/17 07:24:25;;;;;;;14.53;10.80;;;;;;;7.85;100.00;101448.05;5061494;56;1143228;-78
2023/04/17 07:29:30;;;;;;;20.33;13.13;;;;;;;7.81;100.00;101448.66;5081351;56;1143037;-77
2023/04/17 07:34:40;;;;;;;15.60;10.47;;;;;;;7.83;100.00;101459.97;5061201;56;1142925;-80
2023/04/17 07:39:44;;;;;;;15.60;11.17;;;;;;;7.85;100.00;101467.80;5061344;56;1142889;-77
2023/04/17 07:44:50;;;;;;;19.55;11.78;;;;;;;7.83;100.00;101471.82;5046304;56;1143042;-76
2023/04/17 07:49:56;;;;;;;17.52;11.63;;;;;;;7.85;100.00;101476.55;4988368;57;1143018;-77
2023/04/17 07:55:02;;;;;;;22.10;13.40;;;;;;;7.88;100.00;101475.08;5056651;56;1143118;-80
2023/04/17 08:00:11;;;;;;;14.47;11.97;;;;;;;7.92;100.00;101484.55;5062484;56;1142883;-72
2023/04/17 08:05:18;;;;;;;12.37;9.20;;;;;;;7.96;100.00;101483.43;5006658;57;1143090;-70
2023/04/17 08:10:24;;;;;;;14.50;10.73;;;;;;;7.99;100.00;101486.38;5024952;56;1141004;-69
2023/04/17 08:15:29;;;;;;;16.83;12.33;;;;;;;8.01;100.00;101490.64;5017327;55;1143070;-72
2023/04/17 08:20:36;;;;;;;16.47;10.17;;;;;;;8.04;100.00;101498.39;5011970;56;1143053;-80
2023/04/17 08:25:41;;;;;;;13.13;11.20;;;;;;;8.12;100.00;101502.79;4987673;55;1143166;-78
2023/04/17 08:30:47;;;;;;;15.17;12.63;;;;;;;8.25;100.00;101514.03;5044989;56;1143075;-78
2023/04/17 08:35:53;;;;;;;14.23;11.20;;;;;;;8.29;100.00;101519.51;5003779;57;1143032;-76
2023/04/17 08:41:05;;;;;;;16.50;11.50;;;;;;;8.34;100.00;101529.39;5002949;56;1143247;-78
2023/04/17 08:46:10;;;;;;;18.55;12.10;;;;;;;8.42;100.00;101529.83;5060131;56;1143185;-77
2023/04/17 08:51:16;;;;;;;16.43;11.57;;;;;;;8.49;100.00;101537.81;4991894;56;1143095;-80
2023/04/17 08:56:22;;;;;;;16.13;12.63;;;;;;;8.54;100.00;101539.75;4977561;57;1143168;-81
2023/04/17 09:01:28;;;;;;;20.30;13.73;;;;;;;8.56;100.00;101533.05;4986478;56;1143190;-75
2023/04/17 09:06:53;;;;;;;12.97;11.53;;;;;;;8.61;100.00;101538.48;5031252;56;1142780;-75
2023/04/17 09:12:11;;;;;;;16.90;11.73;;;;;;;8.75;100.00;101539.91;4979622;57;1143379;-78
2023/04/17 09:17:19;;;;;;;16.53;12.80;;;;;;;8.89;100.00;101536.98;4979786;57;1143089;-79
2023/04/17 09:22:25;;;;;;;15.57;11.70;;;;;;;8.93;100.00;101533.25;5003557;56;1143164;-77
2023/04/17 09:27:31;;;;;;;13.03;10.57;;;;;;;8.96;100.00;101539.22;4982882;58;1142974;-79
2023/04/17 09:32:37;;;;;;;16.37;11.60;;;;;;;8.98;100.00;101538.67;4983475;57;1143230;-78
2023/04/17 09:37:54;;;;;;;18.33;13.13;;;;;;;9.04;100.00;101544.92;5054398;56;1143166;-77
2023/04/17 09:43:02;;;;;;;15.47;12.87;;;;;;;9.13;100.00;101546.22;5003513;57;1143068;-79
2023/04/17 09:48:14;;;;;;;13.67;11.13;;;;;;;9.22;100.00;101558.04;4898208;56;1143103;-76
2023/04/17 09:53:20;;;;;;;16.87;11.00;;;;;;;9.25;100.00;101559.20;5049042;55;1142961;-77
2023/04/17 09:58:26;;;;;;;9.23;8.27;;;;;;;9.27;100.00;101556.86;5049078;55;1143210;-82
2023/04/17 10:03:33;;;;;;;10.87;9.57;;;;;;;9.29;100.00;101554.14;5029651;56;1138962;-75
2023/04/17 10:08:40;;;;;;;9.10;8.13;;;;;;;9.28;100.00;101561.67;5021292;56;1140894;-75
2023/04/17 10:13:49;;;;;;;13.27;9.50;;;;;;;9.44;100.00;101558.56;4963724;55;1138976;-76
2023/04/17 10:19:30;;;;;;;14.03;10.53;;;;;;;9.67;100.00;101554.59;5020727;56;1140986;-76
2023/04/17 10:24:37;;;;;;;10.47;9.30;;;;;;;9.91;100.00;101559.80;5040529;56;1142947;-80
2023/04/17 10:30:04;;;;;;;11.40;9.17;;;;;;;10.16;100.00;101560.06;5114625;55;1141051;-79
2023/04/17 10:35:23;;;;;;;10.98;9.35;;;;;;;10.33;100.00;101559.09;5027819;57;1143020;-77
2023/04/17 10:40:32;;;;;;;10.67;8.80;;;;;;;10.38;100.00;101547.77;5031501;55;1143163;-76
2023/04/17 10:46:08;;;;;;;13.83;8.63;;;;;;;10.45;100.00;101542.47;5050426;57;1143179;-83
2023/04/17 10:51:27;;;;;;;13.60;9.13;;;;;;;10.59;100.00;101536.34;5031242;57;1142916;-79
2023/04/17 10:56:48;;;;;;;16.90;8.50;;;;;;;10.71;100.00;101534.25;5170280;55;1142873;-80
2023/04/17 11:01:59;;;;;;;8.95;7.80;;;;;;;10.79;100.00;101530.67;5203490;55;1143377;-80
2023/04/17 11:07:06;;;;;;;9.93;8.00;;;;;;;10.85;100.00;101513.55;5156172;55;1140955;-79
2023/04/17 11:12:13;;;;;;;10.28;8.25;;;;;;;11.14;100.00;101519.66;5097419;56;1141086;-77
2023/04/17 11:17:21;;;;;;;8.07;7.27;;;;;;;11.22;100.00;101526.62;5122989;55;1143189;-77
2023/04/17 11:22:32;;;;;;;8.40;6.70;;;;;;;11.39;100.00;101521.09;5153764;55;1140839;-76
2023/04/17 11:27:35;;;;;;;10.33;8.07;;;;;;;11.46;100.00;101524.17;5133998;56;1141039;-77
2023/04/17 11:32:44;;;;;;;9.03;7.03;;;;;;;11.39;100.00;101527.72;5031487;56;1143159;-77
2023/04/17 11:38:13;;;;;;;14.33;7.13;;;;;;;11.28;100.00;101532.87;5026958;55;1140889;-77
2023/04/17 11:43:23;;;;;;;10.13;8.13;;;;;;;11.20;100.00;101533.81;4922593;57;1143170;-79
2023/04/17 11:48:31;;;;;;;7.60;6.70;;;;;;;11.15;100.00;101548.66;5008367;57;1143181;-81
2023/04/17 11:53:36;;;;;;;8.70;7.47;;;;;;;11.16;100.00;101548.19;5011527;57;1140974;-76
2023/04/17 11:58:55;;;;;;;10.72;7.85;;;;;;;11.08;100.00;101555.31;4978192;57;1140865;-77
2023/04/17 12:04:03;;;;;;;10.35;8.55;;;;;;;11.01;100.00;101557.10;5010633;57;1143212;-78
2023/04/17 12:09:09;;;;;;;10.95;9.30;;;;;;;10.94;100.00;101554.01;5030901;57;1143125;-76
2023/04/17 12:14:15;;;;;;;9.45;7.60;;;;;;;11.03;100.00;101561.36;4976971;57;1143085;-75
2023/04/17 12:19:20;;;;;;;14.03;7.97;;;;;;;11.32;100.00;101552.03;5011329;57;1141134;-77
2023/04/17 12:24:26;;;;;;;9.67;7.57;;;;;;;11.69;100.00;101543.41;5031084;57;1143025;-79
2023/04/17 12:29:32;;;;;;;10.03;7.53;;;;;;;11.96;100.00;101556.66;4947888;57;1140929;-78
2023/04/17 12:34:37;;;;;;;9.23;8.08;;;;;;;12.01;100.00;101560.33;4940995;58;1143152;-80
2023/04/17 12:39:43;;;;;;;12.20;8.17;;;;;;;11.96;100.00;101564.13;4924729;58;1141236;-80
2023/04/17 12:44:49;;;;;;;11.68;8.23;;;;;;;11.95;100.00;101561.11;4945507;56;1143010;-73
2023/04/17 12:49:55;;;;;;;10.97;8.27;;;;;;;12.00;100.00;101553.33;4945989;55;1143056;-76
2023/04/17 12:55:02;;;;;;;14.80;8.55;;;;;;;12.08;100.00;101557.62;4932605;56;1143375;-78
2023/04/17 13:00:09;;;;;;;11.75;8.73;;;;;;;12.16;100.00;101555.33;4972086;55;1143222;-76
2023/04/17 13:05:16;;;;;;;10.90;8.47;;;;;;;12.19;100.00;101555.13;4967268;57;1143058;-77
2023/04/17 13:10:22;;;;;;;10.90;8.43;;;;;;;12.26;100.00;101557.23;4900303;57;1142968;-76
2023/04/17 13:15:28;;;;;;;11.73;8.63;;;;;;;12.33;100.00;101545.75;5016913;56;1143228;-79
2023/04/17 13:20:33;;;;;;;9.70;6.30;;;;;;;12.43;100.00;101546.80;5041530;56;1143063;-77
2023/04/17 13:25:39;;;;;;;9.77;8.23;;;;;;;12.55;100.00;101550.41;5007153;57;1140965;-79
2023/04/17 13:30:45;;;;;;;7.93;5.63;;;;;;;12.63;100.00;101548.08;4921583;57;1141021;-73
2023/04/17 13:35:52;;;;;;;9.23;8.33;;;;;;;12.60;100.00;101553.13;4990859;57;1140921;-76
2023/04/17 13:40:57;;;;;;;22.57;15.13;;;;;;;12.55;100.00;101557.03;4953193;57;1184480;-78
2023/04/17 13:46:03;;;;;;;11.83;8.53;;;;;;;12.62;100.00;101561.83;4944431;57;1214902;-76
2023/04/17 13:51:09;;;;;;;13.18;7.75;;;;;;;12.58;100.00;101557.68;4998710;57;1143294;-78
2023/04/17 13:56:14;;;;;;;27.32;16.55;;;;;;;12.58;100.00;101559.48;4956090;57;1143170;-80
2023/04/17 14:01:20;;;;;;;26.93;15.33;;;;;;;12.53;100.00;101555.81;5012396;55;1145067;-76
2023/04/17 14:06:27;;;;;;;13.07;9.37;;;;;;;12.52;100.00;101563.91;5100491;55;1145104;-76
2023/04/17 14:11:33;;;;;;;8.00;7.20;;;;;;;12.56;100.00;101559.59;5004328;56;1142974;-77
2023/04/17 14:16:40;;;;;;;14.97;7.50;;;;;;;12.61;100.00;101560.13;4998577;56;1140962;-75
2023/04/17 14:21:46;;;;;;;8.87;6.33;;;;;;;12.57;100.00;101558.63;5006875;57;1143026;-77
2023/04/17 14:26:51;;;;;;;8.07;6.17;;;;;;;12.56;100.00;101562.24;4960935;56;1141074;-75
2023/04/17 14:31:57;;;;;;;6.75;6.03;;;;;;;12.51;100.00;101559.08;4920555;57;1141192;-76
2023/04/17 14:37:03;;;;;;;6.70;5.50;;;;;;;12.53;100.00;101562.45;4941958;58;1141283;-72
2023/04/17 14:42:08;;;;;;;7.60;6.12;;;;;;;12.49;100.00;101564.11;4961201;58;1141077;-79
2023/04/17 14:47:15;;;;;;;6.62;5.85;;;;;;;12.43;100.00;101558.74;4941937;58;1140938;-76
2023/04/17 14:52:20;;;;;;;6.27;5.40;;;;;;;12.41;100.00;101564.63;5020231;57;1140919;-78
2023/04/17 14:57:30;;;;;;;4.90;4.50;;;;;;;12.46;100.00;101572.28;5101677;56;1140933;-77
2023/04/17 15:02:37;;;;;;;5.63;4.97;;;;;;;12.46;100.00;101568.30;5081331;56;1141029;-76
2023/04/17 15:07:44;;;;;;;7.47;5.20;;;;;;;12.41;100.00;101573.91;5034210;56;1141036;-75
2023/04/17 15:12:50;;;;;;;11.73;7.63;;;;;;;12.36;100.00;101570.74;4995313;57;1140971;-76
2023/04/17 15:17:55;;;;;;;18.53;12.00;;;;;;;12.38;100.00;101575.91;5003049;56;1142930;-78
2023/04/17 15:23:03;;;;;;;21.47;11.87;;;;;;;12.30;100.00;101577.30;4999449;55;1145095;-79
2023/04/17 15:28:09;;;;;;;9.00;6.53;;;;;;;12.28;100.00;101575.23;4973419;55;1153392;-78
2023/04/17 15:33:14;;;;;;;7.47;4.22;;;;;;;12.29;100.00;101575.61;5002798;57;1141090;-76
2023/04/17 15:38:20;;;;;;;8.43;5.20;;;;;;;12.24;100.00;101576.38;5002692;56;1140927;-77
2023/04/17 15:43:25;;;;;;;10.13;4.83;;;;;;;12.25;100.00;101574.11;4982497;56;1140996;-79
2023/04/17 15:48:31;;;;;;;6.60;4.47;;;;;;;12.16;100.00;101575.22;5022297;56;1142992;-78
2023/04/17 15:53:37;;;;;;;6.50;4.60;;;;;;;12.10;100.00;101576.47;5003305;56;1140994;-75
2023/04/17 15:58:43;;;;;;;6.60;4.60;;;;;;;12.04;100.00;101582.67;5002908;56;1140963;-76
2023/04/17 16:03:49;;;;;;;6.60;5.57;;;;;;;11.95;100.00;101582.79;5034107;56;1141066;-74
2023/04/17 16:08:55;;;;;;;47.00;22.97;;;;;;;11.85;100.00;101573.28;5042014;55;1141102;-78
2023/04/17 16:14:00;;;;;;;11.93;5.03;;;;;;;11.81;100.00;101582.38;5051276;56;1145169;-76
2023/04/17 16:19:06;;;;;;;12.35;5.78;;;;;;;11.71;100.00;101579.09;5037343;56;1143152;-75
2023/04/17 16:24:11;;;;;;;13.28;8.38;;;;;;;11.67;100.00;101577.11;5070128;56;1250019;-76
2023/04/17 16:29:17;;;;;;;29.30;12.63;;;;;;;11.75;100.00;101589.40;5052138;56;1143319;-77
2023/04/17 16:34:23;;;;;;;12.97;8.87;;;;;;;11.74;100.00;101581.06;5036801;57;1145002;-79
2023/04/17 16:39:28;;;;;;;23.80;11.00;;;;;;;11.65;100.00;101581.65;5057498;56;1143066;-77
2023/04/17 16:44:34;;;;;;;12.97;7.47;;;;;;;11.54;100.00;101583.68;5040876;56;1145185;-76
2023/04/17 16:49:40;;;;;;;31.00;17.93;;;;;;;11.48;100.00;101593.34;5019470;56;1143772;-79
2023/04/17 16:54:45;;;;;;;71.73;36.57;;;;;;;11.44;100.00;101596.30;5006755;56;1253265;-76
2023/04/17 16:59:51;;;;;;;81.90;43.00;;;;;;;11.38;100.00;101594.88;5042138;56;1252372;-74
2023/04/17 17:04:56;;;;;;;38.33;22.60;;;;;;;11.38;100.00;101604.16;5097242;56;1241927;-74
2023/04/17 17:10:02;;;;;;;12.40;9.03;;;;;;;11.31;100.00;101608.59;5104216;56;1238977;-75
2023/04/17 17:15:08;;;;;;;15.05;7.12;;;;;;;11.28;100.00;101612.31;5119975;56;1259982;-72
2023/04/17 17:20:14;;;;;;;8.43;6.80;;;;;;;11.32;100.00;101615.12;5100141;56;1260653;-73
2023/04/17 17:25:19;;;;;;;10.50;8.57;;;;;;;11.33;100.00;101617.30;5100272;56;1241596;-76
2023/04/17 17:30:25;;;;;;;8.77;6.03;;;;;;;11.29;100.00;101623.29;5074871;56;1142909;-79
2023/04/17 17:35:31;;;;;;;8.03;5.17;;;;;;;11.18;100.00;101627.06;5124573;56;1255721;-75
2023/04/17 17:40:36;;;;;;;6.27;5.00;;;;;;;11.00;100.00;101629.55;5125142;55;1255099;-77
2023/04/17 17:45:42;;;;;;;7.03;5.17;;;;;;;10.83;100.00;101635.88;5144600;56;1255632;-74
2023/04/17 17:50:48;;;;;;;6.13;4.73;;;;;;;10.74;100.00;101639.06;5071790;55;1140971;-76
2023/04/17 17:55:55;;;;;;;20.13;11.80;;;;;;;10.72;100.00;101646.23;5067322;55;1141010;-75
2023/04/17 18:01:01;;;;;;;14.50;8.58;;;;;;;10.69;100.00;101647.77;5085358;56;1145353;-78
2023/04/17 18:06:07;;;;;;;38.70;20.08;;;;;;;10.59;100.00;101648.77;5131905;56;1143035;-75
2023/04/17 18:11:12;;;;;;;109.05;48.05;;;;;;;10.53;100.00;101654.44;4968301;57;1145239;-69
2023/04/17 18:16:18;;;;;;;100.72;42.70;;;;;;;10.46;100.00;101658.38;5090849;57;1147393;-73
2023/04/17 18:21:23;;;;;;;158.37;70.37;;;;;;;10.36;100.00;101657.22;5038562;57;1147380;-74
2023/04/17 18:26:29;;;;;;;60.53;29.00;;;;;;;10.21;100.00;101663.78;4987138;56;1147255;-73
2023/04/17 18:31:34;;;;;;;43.30;20.37;;;;;;;10.11;100.00;101669.17;4962642;57;1145080;-71
2023/04/17 18:36:40;;;;;;;22.30;13.33;;;;;;;10.04;100.00;101668.30;5047332;56;1145166;-70
2023/04/17 18:41:48;;;;;;;18.80;11.70;;;;;;;9.92;100.00;101676.93;4992302;57;1145241;-69
2023/04/17 18:46:54;;;;;;;20.27;13.97;;;;;;;9.88;100.00;101677.56;4995548;56;1142987;-69
2023/04/17 18:52:00;;;;;;;17.32;12.28;;;;;;;9.84;100.00;101687.45;5102741;56;1143105;-70
2023/04/17 18:57:06;;;;;;;13.25;7.97;;;;;;;9.81;100.00;101690.72;5041471;57;1143057;-71
2023/04/17 19:02:11;;;;;;;13.17;6.77;;;;;;;9.70;100.00;101699.72;4941699;58;1141116;-69
2023/04/17 19:07:17;;;;;;;12.93;7.70;;;;;;;9.64;100.00;101700.05;5057755;56;1140978;-72
2023/04/17 19:12:22;;;;;;;12.28;7.92;;;;;;;9.67;100.00;101701.20;5084369;56;1141014;-72
2023/04/17 19:17:28;;;;;;;13.47;8.10;;;;;;;9.68;100.00;101699.80;4992425;57;1140970;-72
2023/04/17 19:22:33;;;;;;;15.10;8.63;;;;;;;9.60;100.00;101700.70;5098055;56;1140991;-71
2023/04/17 19:27:39;;;;;;;15.33;7.57;;;;;;;9.50;100.00;101704.29;5019236;57;1141241;-70
2023/04/17 19:32:44;;;;;;;13.83;8.13;;;;;;;9.48;100.00;101706.16;4946627;57;1141037;-71
2023/04/17 19:37:50;;;;;;;26.07;13.27;;;;;;;9.45;100.00;101708.99;4988460;57;1140909;-70
2023/04/17 19:43:00;;;;;;;14.07;8.13;;;;;;;9.41;100.00;101720.64;5041857;57;1143001;-72
2023/04/17 19:48:03;;;;;;;11.07;7.57;;;;;;;9.33;100.00;101715.37;4998231;57;1141002;-71
2023/04/17 19:53:09;;;;;;;14.33;8.15;;;;;;;9.29;100.00;101723.95;4995014;57;1141130;-72
2023/04/17 19:58:14;;;;;;;13.17;8.80;;;;;;;9.27;100.00;101725.81;5101434;56;1141132;-69
2023/04/17 20:03:20;;;;;;;14.43;8.83;;;;;;;9.21;100.00;101729.23;5052357;57;1141194;-73
2023/04/17 20:08:26;;;;;;;16.00;8.90;;;;;;;9.18;100.00;101727.59;5070390;56;1141142;-72
2023/04/17 20:13:31;;;;;;;12.73;8.40;;;;;;;9.18;100.00;101731.55;5025901;56;1141120;-73
2023/04/17 20:18:37;;;;;;;14.33;8.97;;;;;;;9.20;100.00;101730.16;5033789;57;1140840;-71
2023/04/17 20:23:43;;;;;;;12.47;9.73;;;;;;;9.20;100.00;101723.09;5069831;56;1140797;-71
2023/04/17 20:28:49;;;;;;;11.80;8.20;;;;;;;9.15;100.00;101717.22;5014201;57;1141081;-69
2023/04/17 20:33:54;;;;;;;11.63;8.23;;;;;;;9.09;100.00;101721.02;4915217;56;1141098;-69
2023/04/17 20:39:00;;;;;;;17.80;9.53;;;;;;;9.14;100.00;101719.47;4905885;58;1141109;-69
2023/04/17 20:44:05;;;;;;;19.35;10.28;;;;;;;9.16;100.00;101713.66;4906538;57;1140936;-71
2023/04/17 20:49:14;;;;;;;15.90;11.03;;;;;;;9.13;100.00;101715.98;5028366;57;1143253;-72
2023/04/17 20:54:25;;;;;;;14.85;9.18;;;;;;;9.11;100.00;101717.84;4952635;57;1142999;-73
2023/04/17 20:59:32;;;;;;;15.87;8.47;;;;;;;9.05;100.00;101720.79;4964821;57;1140916;-70
2023/04/17 21:04:37;;;;;;;17.20;8.20;;;;;;;9.03;100.00;101727.08;4986735;57;1141079;-71
2023/04/17 21:09:43;;;;;;;16.50;9.47;;;;;;;8.95;100.00;101716.08;4969449;57;1141070;-72
2023/04/17 21:14:48;;;;;;;14.13;9.07;;;;;;;8.86;100.00;101725.30;5051483;56;1141001;-70
2023/04/17 21:19:57;;;;;;;15.83;8.97;;;;;;;8.80;100.00;101723.00;5107901;56;1140988;-72
2023/04/17 21:25:02;;;;;;;18.07;9.53;;;;;;;8.77;100.00;101724.00;4961657;56;1141078;-70
2023/04/17 21:30:09;;;;;;;21.50;8.45;;;;;;;8.76;100.00;101726.72;5126984;55;1140949;-73
2023/04/17 21:35:15;;;;;;;14.80;9.30;;;;;;;8.68;100.00;101730.22;5147307;55;1141131;-72
2023/04/17 21:40:21;;;;;;;11.33;7.72;;;;;;;8.64;100.00;101734.78;5126532;56;1141162;-71
2023/04/17 21:45:26;;;;;;;10.23;6.17;;;;;;;8.62;100.00;101721.28;5037600;56;1141077;-74
2023/04/17 21:50:34;;;;;;;8.43;6.17;;;;;;;8.60;100.00;101724.45;5056493;56;1140828;-71
2023/04/17 21:55:39;;;;;;;8.13;5.63;;;;;;;8.59;100.00;101721.43;5032273;57;1138894;-72
2023/04/17 22:00:45;;;;;;;10.50;6.60;;;;;;;8.54;100.00;101719.05;5116758;55;1138846;-70
2023/04/17 22:05:52;;;;;;;8.60;5.97;;;;;;;8.50;100.00;101725.39;5209875;55;1141127;-71
2023/04/17 22:10:58;;;;;;;11.27;6.20;;;;;;;8.47;100.00;101725.54;5165207;55;1139129;-69
2023/04/17 22:16:04;;;;;;;10.53;6.20;;;;;;;8.41;100.00;101731.95;5079946;56;1141080;-69
2023/04/17 22:39:23;;;;;;;10.57;7.07;;;;;;;8.32;100.00;101731.56;5139910;55;1140914;-71
2023/04/17 22:45:10;;;;;;;11.38;7.05;;;;;;;8.36;100.00;101731.81;5172460;55;1141023;-73
2023/04/17 22:50:16;;;;;;;11.13;7.73;;;;;;;8.41;100.00;101737.69;5104938;55;1147676;-70
2023/04/17 22:55:21;;;;;;;9.43;7.00;;;;;;;8.43;100.00;101733.20;5086148;56;1141047;-72
2023/04/17 23:00:27;;;;;;;12.70;8.07;;;;;;;8.38;100.00;101732.13;5106161;56;1139048;-71
2023/04/17 23:05:32;;;;;;;13.30;7.27;;;;;;;8.36;100.00;101730.50;5151745;55;1141039;-70
2023/04/17 23:10:38;;;;;;;11.10;7.40;;;;;;;8.33;100.00;101732.81;5153257;56;1141404;-74